Startpagina
METAR-TAF:

METAR-TAF

Vliegvelden :

Aéroport Clermont-Ferrand Auvergne

Clermont-Ferrand, Frankrijk

breedte: 45-47N, lengte: 003-10E, hoogte: 332 m

Actueel weer

Dit bericht is 25 minuten geleden gemaakt, om 12:30 UTC
Wind 3 kt uit variabele richting
Temperatuur 23°C
Vochtigheid 25%
Druk 1021 hPa
Zicht 10 km of meer
geen wolken onder 1500 m en geen cumulonimbus

METAR: LFLC 101230Z AUTO VRB03KT CAVOK 23/02 Q1021 NOSIG

Tijdstip: 14:55 (12:55 UTC)

Verwachting

Dit bericht is 4 uur en het 55 minuten geleden gemaakt, om 08:00 UTC
Verwachting geldig van 10 om 09 UTC tot 11 om 09 UTC
Wind 3 kt uit variabele richting
Zicht 10 km of meer
geen wolken onder 1500 m en geen cumulonimbus
Tijdelijke
van 10 om 09 UTC tot 10 om 19 UTC
Wind 7 kt uit het noordoosten

TAF: LFLC 100800Z 1009/1109 VRB03KT CAVOK TEMPO 1009/1019 05007KT

Waarnemingen en weersverwachtingen van meer dan 4000 vliegvelden (METAR en TAF).

De beschikbare stations zijn de gele en rode punten op de kaart.

Ga met uw muis naar het station om de naam te zien.

Klik dan om waarnemingen en weersverwachtingen te zien.

kaart wijzigen: klik op de groene knoppen met een zwart kruis om in te zoomen, op de groene knop met een streepje om uit te zoomen of op de groene pijlen voor aangrenzende kaarten.


METAR-TAF: